sensor_id;sensor_type;location;lat;lon;timestamp;P1;durP1;ratioP1;P2;durP2;ratioP2
64894;SDS011;51588;53.702;10.208;2022-07-18T00:01:14;5.40;;;2.47;;
64894;SDS011;51588;53.702;10.208;2022-07-18T00:03:40;3.70;;;2.47;;
64894;SDS011;51588;53.702;10.208;2022-07-18T00:06:06;3.30;;;2.37;;
64894;SDS011;51588;53.702;10.208;2022-07-18T00:08:33;3.30;;;2.37;;
64894;SDS011;51588;53.702;10.208;2022-07-18T00:11:01;2.67;;;2.40;;
64894;SDS011;51588;53.702;10.208;2022-07-18T00:13:27;2.20;;;2.00;;
64894;SDS011;51588;53.702;10.208;2022-07-18T00:16:01;2.50;;;1.83;;
64894;SDS011;51588;53.702;10.208;2022-07-18T00:18:27;3.37;;;2.30;;
64894;SDS011;51588;53.702;10.208;2022-07-18T00:20:53;2.80;;;2.03;;
64894;SDS011;51588;53.702;10.208;2022-07-18T00:23:20;5.10;;;2.20;;
64894;SDS011;51588;53.702;10.208;2022-07-18T00:25:46;2.77;;;2.30;;
64894;SDS011;51588;53.702;10.208;2022-07-18T00:28:14;2.50;;;2.30;;
64894;SDS011;51588;53.702;10.208;2022-07-18T00:30:40;2.30;;;2.03;;
64894;SDS011;51588;53.702;10.208;2022-07-18T00:33:07;2.30;;;2.10;;
64894;SDS011;51588;53.702;10.208;2022-07-18T00:35:33;2.60;;;2.20;;
64894;SDS011;51588;53.702;10.208;2022-07-18T00:38:00;2.30;;;2.10;;
64894;SDS011;51588;53.702;10.208;2022-07-18T00:40:27;2.63;;;2.30;;
64894;SDS011;51588;53.702;10.208;2022-07-18T00:42:53;3.13;;;2.30;;
64894;SDS011;51588;53.702;10.208;2022-07-18T00:45:21;2.53;;;2.33;;
64894;SDS011;51588;53.702;10.208;2022-07-18T00:47:48;2.60;;;2.40;;
64894;SDS011;51588;53.702;10.208;2022-07-18T00:50:16;2.50;;;2.30;;
64894;SDS011;51588;53.702;10.208;2022-07-18T00:52:43;3.17;;;2.40;;
64894;SDS011;51588;53.702;10.208;2022-07-18T00:55:09;3.00;;;2.10;;
64894;SDS011;51588;53.702;10.208;2022-07-18T00:57:36;2.33;;;2.00;;
64894;SDS011;51588;53.702;10.208;2022-07-18T01:00:03;2.33;;;1.97;;
64894;SDS011;51588;53.702;10.208;2022-07-18T01:02:49;2.73;;;2.20;;
64894;SDS011;51588;53.702;10.208;2022-07-18T01:05:16;2.57;;;2.37;;
64894;SDS011;51588;53.702;10.208;2022-07-18T01:07:42;2.43;;;2.00;;
64894;SDS011;51588;53.702;10.208;2022-07-18T01:10:09;2.27;;;1.97;;
64894;SDS011;51588;53.702;10.208;2022-07-18T01:12:35;2.70;;;2.37;;
64894;SDS011;51588;53.702;10.208;2022-07-18T01:15:02;2.37;;;2.13;;
64894;SDS011;51588;53.702;10.208;2022-07-18T01:17:29;2.10;;;1.90;;
64894;SDS011;51588;53.702;10.208;2022-07-18T01:19:56;2.73;;;1.93;;
64894;SDS011;51588;53.702;10.208;2022-07-18T01:22:24;2.30;;;2.10;;
64894;SDS011;51588;53.702;10.208;2022-07-18T01:24:50;2.10;;;1.90;;
64894;SDS011;51588;53.702;10.208;2022-07-18T01:27:18;2.60;;;2.30;;
64894;SDS011;51588;53.702;10.208;2022-07-18T01:29:45;2.73;;;2.20;;
64894;SDS011;51588;53.702;10.208;2022-07-18T01:32:11;2.33;;;2.10;;
64894;SDS011;51588;53.702;10.208;2022-07-18T01:34:38;2.17;;;1.97;;
64894;SDS011;51588;53.702;10.208;2022-07-18T01:37:04;2.70;;;2.13;;
64894;SDS011;51588;53.702;10.208;2022-07-18T01:39:33;3.50;;;2.43;;
64894;SDS011;51588;53.702;10.208;2022-07-18T01:42:00;2.40;;;2.20;;
64894;SDS011;51588;53.702;10.208;2022-07-18T01:44:27;2.40;;;2.20;;
64894;SDS011;51588;53.702;10.208;2022-07-18T01:46:54;3.33;;;2.33;;
64894;SDS011;51588;53.702;10.208;2022-07-18T01:49:20;2.90;;;2.03;;
64894;SDS011;51588;53.702;10.208;2022-07-18T01:51:47;3.23;;;2.10;;
64894;SDS011;51588;53.702;10.208;2022-07-18T01:54:13;2.73;;;2.30;;
64894;SDS011;51588;53.702;10.208;2022-07-18T01:56:41;2.20;;;2.00;;
64894;SDS011;51588;53.702;10.208;2022-07-18T01:59:07;2.60;;;2.20;;
64894;SDS011;51588;53.702;10.208;2022-07-18T02:01:34;2.20;;;2.00;;
64894;SDS011;51588;53.702;10.208;2022-07-18T02:04:00;2.47;;;2.10;;
64894;SDS011;51588;53.702;10.208;2022-07-18T02:06:26;4.13;;;2.30;;
64894;SDS011;51588;53.702;10.208;2022-07-18T02:08:53;2.97;;;2.30;;
64894;SDS011;51588;53.702;10.208;2022-07-18T02:11:19;3.97;;;2.40;;
64894;SDS011;51588;53.702;10.208;2022-07-18T02:13:47;2.30;;;1.90;;
64894;SDS011;51588;53.702;10.208;2022-07-18T02:16:13;2.10;;;1.90;;
64894;SDS011;51588;53.702;10.208;2022-07-18T02:18:40;2.20;;;2.00;;
64894;SDS011;51588;53.702;10.208;2022-07-18T02:21:06;2.60;;;2.40;;
64894;SDS011;51588;53.702;10.208;2022-07-18T02:23:33;2.93;;;2.17;;
64894;SDS011;51588;53.702;10.208;2022-07-18T02:26:00;4.00;;;2.47;;
64894;SDS011;51588;53.702;10.208;2022-07-18T02:28:26;2.60;;;2.13;;
64894;SDS011;51588;53.702;10.208;2022-07-18T02:30:54;2.47;;;2.17;;
64894;SDS011;51588;53.702;10.208;2022-07-18T02:33:20;2.33;;;2.13;;
64894;SDS011;51588;53.702;10.208;2022-07-18T02:35:47;2.60;;;1.97;;
64894;SDS011;51588;53.702;10.208;2022-07-18T02:38:13;2.70;;;2.43;;
64894;SDS011;51588;53.702;10.208;2022-07-18T02:40:39;2.23;;;2.03;;
64894;SDS011;51588;53.702;10.208;2022-07-18T02:43:06;2.47;;;2.27;;
64894;SDS011;51588;53.702;10.208;2022-07-18T02:45:32;2.30;;;2.10;;
64894;SDS011;51588;53.702;10.208;2022-07-18T02:48:00;2.90;;;2.10;;
64894;SDS011;51588;53.702;10.208;2022-07-18T02:50:26;2.93;;;2.40;;
64894;SDS011;51588;53.702;10.208;2022-07-18T02:52:53;1.90;;;1.80;;
64894;SDS011;51588;53.702;10.208;2022-07-18T02:55:21;2.57;;;2.00;;
64894;SDS011;51588;53.702;10.208;2022-07-18T02:57:48;3.00;;;2.20;;
64894;SDS011;51588;53.702;10.208;2022-07-18T03:00:15;2.30;;;2.10;;
64894;SDS011;51588;53.702;10.208;2022-07-18T03:02:42;3.13;;;2.40;;
64894;SDS011;51588;53.702;10.208;2022-07-18T03:05:10;3.30;;;2.20;;
64894;SDS011;51588;53.702;10.208;2022-07-18T03:07:37;2.83;;;2.10;;
64894;SDS011;51588;53.702;10.208;2022-07-18T03:10:04;2.30;;;2.10;;
64894;SDS011;51588;53.702;10.208;2022-07-18T03:12:31;3.37;;;2.33;;
64894;SDS011;51588;53.702;10.208;2022-07-18T03:14:57;2.50;;;2.30;;
64894;SDS011;51588;53.702;10.208;2022-07-18T03:17:24;2.20;;;2.00;;
64894;SDS011;51588;53.702;10.208;2022-07-18T03:19:50;2.30;;;2.10;;
64894;SDS011;51588;53.702;10.208;2022-07-18T03:22:18;2.70;;;2.30;;
64894;SDS011;51588;53.702;10.208;2022-07-18T03:24:44;3.50;;;2.10;;
64894;SDS011;51588;53.702;10.208;2022-07-18T03:27:11;2.50;;;2.30;;
64894;SDS011;51588;53.702;10.208;2022-07-18T03:29:37;2.80;;;2.50;;
64894;SDS011;51588;53.702;10.208;2022-07-18T03:32:04;2.90;;;2.30;;
64894;SDS011;51588;53.702;10.208;2022-07-18T03:34:30;3.60;;;2.70;;
64894;SDS011;51588;53.702;10.208;2022-07-18T03:36:56;3.03;;;2.50;;
64894;SDS011;51588;53.702;10.208;2022-07-18T03:39:24;2.83;;;2.40;;
64894;SDS011;51588;53.702;10.208;2022-07-18T03:41:51;2.50;;;2.30;;
64894;SDS011;51588;53.702;10.208;2022-07-18T03:44:17;3.03;;;2.50;;
64894;SDS011;51588;53.702;10.208;2022-07-18T03:46:44;3.60;;;2.57;;
64894;SDS011;51588;53.702;10.208;2022-07-18T03:49:10;4.00;;;2.43;;
64894;SDS011;51588;53.702;10.208;2022-07-18T03:51:36;2.83;;;2.43;;
64894;SDS011;51588;53.702;10.208;2022-07-18T03:54:03;2.57;;;2.37;;
64894;SDS011;51588;53.702;10.208;2022-07-18T03:56:30;3.00;;;2.50;;
64894;SDS011;51588;53.702;10.208;2022-07-18T03:58:57;2.40;;;2.20;;
64894;SDS011;51588;53.702;10.208;2022-07-18T04:01:23;3.83;;;2.67;;
64894;SDS011;51588;53.702;10.208;2022-07-18T04:03:49;2.70;;;2.43;;
64894;SDS011;51588;53.702;10.208;2022-07-18T04:06:16;2.90;;;2.60;;
64894;SDS011;51588;53.702;10.208;2022-07-18T04:08:42;3.37;;;2.50;;
64894;SDS011;51588;53.702;10.208;2022-07-18T04:11:09;3.63;;;3.20;;
64894;SDS011;51588;53.702;10.208;2022-07-18T04:13:36;4.07;;;2.43;;
64894;SDS011;51588;53.702;10.208;2022-07-18T04:16:03;2.40;;;2.20;;
64894;SDS011;51588;53.702;10.208;2022-07-18T04:18:29;2.87;;;2.50;;
64894;SDS011;51588;53.702;10.208;2022-07-18T04:20:56;3.10;;;2.57;;
64894;SDS011;51588;53.702;10.208;2022-07-18T04:23:22;2.60;;;2.40;;
64894;SDS011;51588;53.702;10.208;2022-07-18T04:25:48;2.80;;;2.50;;
64894;SDS011;51588;53.702;10.208;2022-07-18T04:28:15;2.43;;;2.23;;
64894;SDS011;51588;53.702;10.208;2022-07-18T04:30:43;2.33;;;2.13;;
64894;SDS011;51588;53.702;10.208;2022-07-18T04:33:09;2.60;;;2.40;;
64894;SDS011;51588;53.702;10.208;2022-07-18T04:35:36;2.60;;;2.40;;
64894;SDS011;51588;53.702;10.208;2022-07-18T04:38:04;3.70;;;2.37;;
64894;SDS011;51588;53.702;10.208;2022-07-18T04:40:30;2.80;;;2.50;;
64894;SDS011;51588;53.702;10.208;2022-07-18T04:42:57;3.60;;;2.40;;
64894;SDS011;51588;53.702;10.208;2022-07-18T04:45:23;2.77;;;2.27;;
64894;SDS011;51588;53.702;10.208;2022-07-18T04:47:51;2.30;;;2.10;;
64894;SDS011;51588;53.702;10.208;2022-07-18T04:50:17;2.27;;;2.07;;
64894;SDS011;51588;53.702;10.208;2022-07-18T04:52:44;2.80;;;2.50;;
64894;SDS011;51588;53.702;10.208;2022-07-18T04:55:11;2.60;;;2.40;;
64894;SDS011;51588;53.702;10.208;2022-07-18T04:57:38;2.27;;;2.07;;
64894;SDS011;51588;53.702;10.208;2022-07-18T05:00:05;2.90;;;2.43;;
64894;SDS011;51588;53.702;10.208;2022-07-18T05:02:32;2.40;;;2.10;;
64894;SDS011;51588;53.702;10.208;2022-07-18T05:05:00;2.50;;;2.30;;
64894;SDS011;51588;53.702;10.208;2022-07-18T05:07:26;2.50;;;2.30;;
64894;SDS011;51588;53.702;10.208;2022-07-18T05:09:52;3.03;;;2.60;;
64894;SDS011;51588;53.702;10.208;2022-07-18T05:12:19;2.30;;;2.10;;
64894;SDS011;51588;53.702;10.208;2022-07-18T05:14:48;3.50;;;2.33;;
64894;SDS011;51588;53.702;10.208;2022-07-18T05:17:14;2.60;;;2.40;;
64894;SDS011;51588;53.702;10.208;2022-07-18T05:19:41;2.67;;;2.47;;
64894;SDS011;51588;53.702;10.208;2022-07-18T05:22:08;3.20;;;2.70;;
64894;SDS011;51588;53.702;10.208;2022-07-18T05:24:35;3.10;;;2.70;;
64894;SDS011;51588;53.702;10.208;2022-07-18T05:27:01;3.83;;;2.83;;
64894;SDS011;51588;53.702;10.208;2022-07-18T05:29:27;2.70;;;2.50;;
64894;SDS011;51588;53.702;10.208;2022-07-18T05:31:54;3.13;;;2.83;;
64894;SDS011;51588;53.702;10.208;2022-07-18T05:34:21;3.00;;;2.57;;
64894;SDS011;51588;53.702;10.208;2022-07-18T05:36:47;4.30;;;2.47;;
64894;SDS011;51588;53.702;10.208;2022-07-18T05:39:15;3.10;;;2.57;;
64894;SDS011;51588;53.702;10.208;2022-07-18T05:41:41;3.03;;;2.70;;
64894;SDS011;51588;53.702;10.208;2022-07-18T05:44:07;3.00;;;2.70;;
64894;SDS011;51588;53.702;10.208;2022-07-18T05:46:33;3.00;;;2.70;;
64894;SDS011;51588;53.702;10.208;2022-07-18T05:49:00;2.63;;;2.43;;
64894;SDS011;51588;53.702;10.208;2022-07-18T05:51:26;2.83;;;2.53;;
64894;SDS011;51588;53.702;10.208;2022-07-18T05:53:53;3.80;;;2.70;;
64894;SDS011;51588;53.702;10.208;2022-07-18T05:56:20;3.60;;;2.70;;
64894;SDS011;51588;53.702;10.208;2022-07-18T05:58:47;2.70;;;2.50;;
64894;SDS011;51588;53.702;10.208;2022-07-18T06:01:13;2.97;;;2.67;;
64894;SDS011;51588;53.702;10.208;2022-07-18T06:03:44;4.23;;;2.70;;
64894;SDS011;51588;53.702;10.208;2022-07-18T06:06:11;3.50;;;2.73;;
64894;SDS011;51588;53.702;10.208;2022-07-18T06:08:37;3.37;;;2.67;;
64894;SDS011;51588;53.702;10.208;2022-07-18T06:11:04;3.27;;;2.80;;
64894;SDS011;51588;53.702;10.208;2022-07-18T06:13:33;3.40;;;2.90;;
64894;SDS011;51588;53.702;10.208;2022-07-18T06:15:59;3.57;;;2.80;;
64894;SDS011;51588;53.702;10.208;2022-07-18T06:18:25;3.27;;;2.97;;
64894;SDS011;51588;53.702;10.208;2022-07-18T06:20:52;3.33;;;2.67;;
64894;SDS011;51588;53.702;10.208;2022-07-18T06:23:18;6.50;;;3.33;;
64894;SDS011;51588;53.702;10.208;2022-07-18T06:25:44;2.83;;;2.33;;
64894;SDS011;51588;53.702;10.208;2022-07-18T06:28:11;3.57;;;2.80;;
64894;SDS011;51588;53.702;10.208;2022-07-18T06:30:39;7.20;;;3.00;;
64894;SDS011;51588;53.702;10.208;2022-07-18T06:33:05;4.17;;;3.00;;
64894;SDS011;51588;53.702;10.208;2022-07-18T06:35:32;3.40;;;3.10;;
64894;SDS011;51588;53.702;10.208;2022-07-18T06:37:59;3.17;;;2.87;;
64894;SDS011;51588;53.702;10.208;2022-07-18T06:40:25;4.47;;;3.20;;
64894;SDS011;51588;53.702;10.208;2022-07-18T06:42:52;3.53;;;2.90;;
64894;SDS011;51588;53.702;10.208;2022-07-18T06:45:18;4.33;;;3.00;;
64894;SDS011;51588;53.702;10.208;2022-07-18T06:47:46;3.60;;;2.80;;
64894;SDS011;51588;53.702;10.208;2022-07-18T06:50:12;4.23;;;3.27;;
64894;SDS011;51588;53.702;10.208;2022-07-18T06:52:39;4.17;;;3.20;;
64894;SDS011;51588;53.702;10.208;2022-07-18T06:55:06;6.37;;;3.47;;
64894;SDS011;51588;53.702;10.208;2022-07-18T06:57:32;4.10;;;3.20;;
64894;SDS011;51588;53.702;10.208;2022-07-18T06:59:59;4.73;;;3.10;;
64894;SDS011;51588;53.702;10.208;2022-07-18T07:02:25;10.90;;;3.17;;
64894;SDS011;51588;53.702;10.208;2022-07-18T07:04:53;4.90;;;3.07;;
64894;SDS011;51588;53.702;10.208;2022-07-18T07:07:19;7.53;;;3.67;;
64894;SDS011;51588;53.702;10.208;2022-07-18T07:09:46;9.53;;;3.77;;
64894;SDS011;51588;53.702;10.208;2022-07-18T07:12:12;5.00;;;3.50;;
64894;SDS011;51588;53.702;10.208;2022-07-18T07:14:38;9.33;;;3.97;;
64894;SDS011;51588;53.702;10.208;2022-07-18T07:17:05;7.23;;;3.50;;
64894;SDS011;51588;53.702;10.208;2022-07-18T07:19:31;5.77;;;4.00;;
64894;SDS011;51588;53.702;10.208;2022-07-18T07:21:59;8.20;;;3.90;;
64894;SDS011;51588;53.702;10.208;2022-07-18T07:24:26;5.40;;;3.80;;
64894;SDS011;51588;53.702;10.208;2022-07-18T07:26:52;12.03;;;4.60;;
64894;SDS011;51588;53.702;10.208;2022-07-18T07:29:18;9.00;;;5.40;;
64894;SDS011;51588;53.702;10.208;2022-07-18T07:31:45;10.90;;;6.27;;
64894;SDS011;51588;53.702;10.208;2022-07-18T07:34:11;9.23;;;5.93;;
64894;SDS011;51588;53.702;10.208;2022-07-18T07:36:37;10.60;;;5.80;;
64894;SDS011;51588;53.702;10.208;2022-07-18T07:39:05;10.93;;;6.03;;
64894;SDS011;51588;53.702;10.208;2022-07-18T07:41:32;10.43;;;6.83;;
64894;SDS011;51588;53.702;10.208;2022-07-18T07:43:58;10.87;;;6.70;;
64894;SDS011;51588;53.702;10.208;2022-07-18T07:46:26;11.67;;;7.50;;
64894;SDS011;51588;53.702;10.208;2022-07-18T07:48:52;9.50;;;6.80;;
64894;SDS011;51588;53.702;10.208;2022-07-18T07:51:19;9.23;;;6.30;;
64894;SDS011;51588;53.702;10.208;2022-07-18T07:53:45;10.90;;;7.50;;
64894;SDS011;51588;53.702;10.208;2022-07-18T07:56:13;9.57;;;6.50;;
64894;SDS011;51588;53.702;10.208;2022-07-18T07:58:44;12.00;;;6.50;;
64894;SDS011;51588;53.702;10.208;2022-07-18T08:01:10;9.93;;;6.80;;
64894;SDS011;51588;53.702;10.208;2022-07-18T08:03:37;15.17;;;7.50;;
64894;SDS011;51588;53.702;10.208;2022-07-18T08:06:03;16.20;;;7.63;;
64894;SDS011;51588;53.702;10.208;2022-07-18T08:08:29;14.87;;;7.07;;
64894;SDS011;51588;53.702;10.208;2022-07-18T08:10:56;11.13;;;7.03;;
64894;SDS011;51588;53.702;10.208;2022-07-18T08:13:23;11.67;;;7.50;;
64894;SDS011;51588;53.702;10.208;2022-07-18T08:15:50;11.00;;;6.60;;
64894;SDS011;51588;53.702;10.208;2022-07-18T08:18:16;12.43;;;6.90;;
64894;SDS011;51588;53.702;10.208;2022-07-18T08:20:42;13.77;;;6.80;;
64894;SDS011;51588;53.702;10.208;2022-07-18T08:23:09;17.50;;;7.73;;
64894;SDS011;51588;53.702;10.208;2022-07-18T08:25:37;11.20;;;6.43;;
64894;SDS011;51588;53.702;10.208;2022-07-18T08:28:04;8.30;;;5.97;;
64894;SDS011;51588;53.702;10.208;2022-07-18T08:30:32;9.63;;;6.07;;
64894;SDS011;51588;53.702;10.208;2022-07-18T08:32:59;13.27;;;5.93;;
64894;SDS011;51588;53.702;10.208;2022-07-18T08:35:25;8.67;;;6.30;;
64894;SDS011;51588;53.702;10.208;2022-07-18T08:37:52;10.90;;;6.57;;
64894;SDS011;51588;53.702;10.208;2022-07-18T08:40:18;9.80;;;6.03;;
64894;SDS011;51588;53.702;10.208;2022-07-18T08:42:45;9.03;;;6.17;;
64894;SDS011;51588;53.702;10.208;2022-07-18T08:45:11;17.23;;;7.00;;
64894;SDS011;51588;53.702;10.208;2022-07-18T08:47:39;11.63;;;6.20;;
64894;SDS011;51588;53.702;10.208;2022-07-18T08:50:05;13.20;;;6.37;;
64894;SDS011;51588;53.702;10.208;2022-07-18T08:52:32;13.93;;;6.63;;
64894;SDS011;51588;53.702;10.208;2022-07-18T08:55:00;10.37;;;6.43;;
64894;SDS011;51588;53.702;10.208;2022-07-18T08:57:27;13.93;;;6.97;;
64894;SDS011;51588;53.702;10.208;2022-07-18T08:59:54;12.13;;;6.73;;
64894;SDS011;51588;53.702;10.208;2022-07-18T09:02:23;11.00;;;5.80;;
64894;SDS011;51588;53.702;10.208;2022-07-18T09:04:51;9.43;;;6.13;;
64894;SDS011;51588;53.702;10.208;2022-07-18T09:07:24;9.03;;;6.10;;
64894;SDS011;51588;53.702;10.208;2022-07-18T09:09:54;9.73;;;6.50;;
64894;SDS011;51588;53.702;10.208;2022-07-18T09:12:21;8.40;;;6.00;;
64894;SDS011;51588;53.702;10.208;2022-07-18T09:14:47;6.40;;;5.30;;
64894;SDS011;51588;53.702;10.208;2022-07-18T09:17:15;8.33;;;5.00;;
64894;SDS011;51588;53.702;10.208;2022-07-18T09:19:42;9.47;;;6.10;;
64894;SDS011;51588;53.702;10.208;2022-07-18T09:22:14;11.03;;;6.03;;
64894;SDS011;51588;53.702;10.208;2022-07-18T09:24:51;11.63;;;6.33;;
64894;SDS011;51588;53.702;10.208;2022-07-18T09:27:25;11.60;;;6.17;;
64894;SDS011;51588;53.702;10.208;2022-07-18T09:30:08;14.90;;;6.20;;
64894;SDS011;51588;53.702;10.208;2022-07-18T09:32:35;19.10;;;7.57;;
64894;SDS011;51588;53.702;10.208;2022-07-18T09:35:04;9.13;;;5.40;;
64894;SDS011;51588;53.702;10.208;2022-07-18T09:37:32;10.33;;;5.23;;
64894;SDS011;51588;53.702;10.208;2022-07-18T09:40:02;8.83;;;5.57;;
64894;SDS011;51588;53.702;10.208;2022-07-18T09:42:39;12.40;;;6.13;;
64894;SDS011;51588;53.702;10.208;2022-07-18T09:45:06;9.50;;;5.60;;
64894;SDS011;51588;53.702;10.208;2022-07-18T09:47:33;9.30;;;5.73;;
64894;SDS011;51588;53.702;10.208;2022-07-18T09:50:18;10.27;;;5.93;;
64894;SDS011;51588;53.702;10.208;2022-07-18T09:52:47;12.23;;;5.40;;
64894;SDS011;51588;53.702;10.208;2022-07-18T09:55:21;10.10;;;6.00;;
64894;SDS011;51588;53.702;10.208;2022-07-18T09:57:50;9.40;;;5.70;;
64894;SDS011;51588;53.702;10.208;2022-07-18T10:00:22;8.13;;;5.60;;
64894;SDS011;51588;53.702;10.208;2022-07-18T10:02:48;9.50;;;5.33;;
64894;SDS011;51588;53.702;10.208;2022-07-18T10:05:14;10.00;;;5.60;;
64894;SDS011;51588;53.702;10.208;2022-07-18T10:07:41;8.57;;;5.27;;
64894;SDS011;51588;53.702;10.208;2022-07-18T10:10:09;8.93;;;5.70;;
64894;SDS011;51588;53.702;10.208;2022-07-18T10:12:36;9.23;;;5.80;;
64894;SDS011;51588;53.702;10.208;2022-07-18T10:15:02;11.53;;;5.90;;
64894;SDS011;51588;53.702;10.208;2022-07-18T10:17:30;11.40;;;6.23;;
64894;SDS011;51588;53.702;10.208;2022-07-18T10:20:00;9.27;;;5.70;;
64894;SDS011;51588;53.702;10.208;2022-07-18T10:22:28;9.80;;;6.30;;
64894;SDS011;51588;53.702;10.208;2022-07-18T10:24:54;9.00;;;6.10;;
64894;SDS011;51588;53.702;10.208;2022-07-18T10:27:22;9.17;;;6.20;;
64894;SDS011;51588;53.702;10.208;2022-07-18T10:30:08;10.30;;;6.10;;
64894;SDS011;51588;53.702;10.208;2022-07-18T10:32:35;10.30;;;6.03;;
64894;SDS011;51588;53.702;10.208;2022-07-18T10:35:01;9.80;;;6.20;;
64894;SDS011;51588;53.702;10.208;2022-07-18T10:37:29;9.37;;;6.10;;
64894;SDS011;51588;53.702;10.208;2022-07-18T10:40:00;8.23;;;5.97;;
64894;SDS011;51588;53.702;10.208;2022-07-18T10:42:46;14.40;;;5.63;;
64894;SDS011;51588;53.702;10.208;2022-07-18T10:45:42;8.07;;;6.13;;
64894;SDS011;51588;53.702;10.208;2022-07-18T10:50:59;10.87;;;6.17;;
64894;SDS011;51588;53.702;10.208;2022-07-18T10:53:28;7.90;;;5.23;;
64894;SDS011;51588;53.702;10.208;2022-07-18T10:56:14;9.23;;;6.77;;
64894;SDS011;51588;53.702;10.208;2022-07-18T10:58:42;9.50;;;6.23;;
64894;SDS011;51588;53.702;10.208;2022-07-18T11:01:10;14.90;;;6.80;;
64894;SDS011;51588;53.702;10.208;2022-07-18T11:03:40;11.37;;;5.93;;
64894;SDS011;51588;53.702;10.208;2022-07-18T11:06:07;9.83;;;5.87;;
64894;SDS011;51588;53.702;10.208;2022-07-18T11:08:33;7.57;;;5.67;;
64894;SDS011;51588;53.702;10.208;2022-07-18T11:11:12;10.60;;;6.10;;
64894;SDS011;51588;53.702;10.208;2022-07-18T11:13:43;9.37;;;5.80;;
64894;SDS011;51588;53.702;10.208;2022-07-18T11:16:14;9.33;;;6.23;;
64894;SDS011;51588;53.702;10.208;2022-07-18T11:21:26;14.10;;;6.67;;
64894;SDS011;51588;53.702;10.208;2022-07-18T11:23:54;10.60;;;6.27;;
64894;SDS011;51588;53.702;10.208;2022-07-18T11:26:22;12.23;;;6.20;;
64894;SDS011;51588;53.702;10.208;2022-07-18T11:28:58;7.57;;;5.60;;
64894;SDS011;51588;53.702;10.208;2022-07-18T11:31:25;9.17;;;5.17;;
64894;SDS011;51588;53.702;10.208;2022-07-18T11:33:52;10.90;;;5.87;;
64894;SDS011;51588;53.702;10.208;2022-07-18T11:36:19;9.90;;;6.37;;
64894;SDS011;51588;53.702;10.208;2022-07-18T11:38:46;9.40;;;6.27;;
64894;SDS011;51588;53.702;10.208;2022-07-18T11:41:13;9.60;;;6.17;;
64894;SDS011;51588;53.702;10.208;2022-07-18T11:43:40;16.40;;;6.10;;
64894;SDS011;51588;53.702;10.208;2022-07-18T11:46:08;10.87;;;6.13;;
64894;SDS011;51588;53.702;10.208;2022-07-18T11:48:36;9.23;;;5.80;;
64894;SDS011;51588;53.702;10.208;2022-07-18T11:51:07;9.40;;;6.07;;
64894;SDS011;51588;53.702;10.208;2022-07-18T11:53:34;10.97;;;6.10;;
64894;SDS011;51588;53.702;10.208;2022-07-18T11:56:03;11.47;;;6.00;;
64894;SDS011;51588;53.702;10.208;2022-07-18T11:58:34;11.23;;;6.43;;
64894;SDS011;51588;53.702;10.208;2022-07-18T12:01:00;8.90;;;6.00;;
64894;SDS011;51588;53.702;10.208;2022-07-18T12:03:28;8.33;;;6.27;;
64894;SDS011;51588;53.702;10.208;2022-07-18T12:05:55;9.47;;;5.00;;
64894;SDS011;51588;53.702;10.208;2022-07-18T12:08:28;9.83;;;5.60;;
64894;SDS011;51588;53.702;10.208;2022-07-18T12:11:04;10.03;;;6.07;;
64894;SDS011;51588;53.702;10.208;2022-07-18T12:13:41;8.43;;;5.70;;
64894;SDS011;51588;53.702;10.208;2022-07-18T12:16:08;9.97;;;6.37;;
64894;SDS011;51588;53.702;10.208;2022-07-18T12:18:49;7.40;;;5.20;;
64894;SDS011;51588;53.702;10.208;2022-07-18T12:21:16;8.07;;;5.57;;
64894;SDS011;51588;53.702;10.208;2022-07-18T12:23:42;8.07;;;5.50;;
64894;SDS011;51588;53.702;10.208;2022-07-18T12:26:09;9.93;;;5.43;;
64894;SDS011;51588;53.702;10.208;2022-07-18T12:28:35;8.60;;;5.00;;
64894;SDS011;51588;53.702;10.208;2022-07-18T12:31:01;9.80;;;5.13;;
64894;SDS011;51588;53.702;10.208;2022-07-18T12:33:28;9.07;;;5.80;;
64894;SDS011;51588;53.702;10.208;2022-07-18T12:35:56;10.97;;;5.70;;
64894;SDS011;51588;53.702;10.208;2022-07-18T12:38:23;8.50;;;5.63;;
64894;SDS011;51588;53.702;10.208;2022-07-18T12:40:50;10.50;;;6.20;;
64894;SDS011;51588;53.702;10.208;2022-07-18T12:43:22;8.10;;;5.60;;
64894;SDS011;51588;53.702;10.208;2022-07-18T12:45:49;11.73;;;5.67;;
64894;SDS011;51588;53.702;10.208;2022-07-18T12:48:16;11.40;;;5.50;;
64894;SDS011;51588;53.702;10.208;2022-07-18T12:50:42;10.83;;;5.53;;
64894;SDS011;51588;53.702;10.208;2022-07-18T12:53:10;11.17;;;5.63;;
64894;SDS011;51588;53.702;10.208;2022-07-18T12:55:37;9.70;;;5.10;;
64894;SDS011;51588;53.702;10.208;2022-07-18T12:58:05;8.60;;;5.10;;
64894;SDS011;51588;53.702;10.208;2022-07-18T13:00:31;7.00;;;5.40;;
64894;SDS011;51588;53.702;10.208;2022-07-18T13:02:58;10.07;;;5.20;;
64894;SDS011;51588;53.702;10.208;2022-07-18T13:05:24;8.97;;;4.93;;
64894;SDS011;51588;53.702;10.208;2022-07-18T13:07:51;7.50;;;5.10;;
64894;SDS011;51588;53.702;10.208;2022-07-18T13:10:19;8.93;;;4.97;;
64894;SDS011;51588;53.702;10.208;2022-07-18T13:12:45;5.93;;;4.80;;
64894;SDS011;51588;53.702;10.208;2022-07-18T13:15:12;6.23;;;4.80;;
64894;SDS011;51588;53.702;10.208;2022-07-18T13:17:38;7.53;;;5.27;;
64894;SDS011;51588;53.702;10.208;2022-07-18T13:20:05;7.13;;;4.67;;
64894;SDS011;51588;53.702;10.208;2022-07-18T13:22:32;11.43;;;4.23;;
64894;SDS011;51588;53.702;10.208;2022-07-18T13:25:03;10.30;;;4.77;;
64894;SDS011;51588;53.702;10.208;2022-07-18T13:27:31;15.47;;;4.83;;
64894;SDS011;51588;53.702;10.208;2022-07-18T13:29:57;6.47;;;4.90;;
64894;SDS011;51588;53.702;10.208;2022-07-18T13:32:25;6.07;;;4.47;;
64894;SDS011;51588;53.702;10.208;2022-07-18T13:34:52;5.87;;;4.07;;
64894;SDS011;51588;53.702;10.208;2022-07-18T13:37:18;6.03;;;4.63;;
64894;SDS011;51588;53.702;10.208;2022-07-18T13:39:44;6.33;;;4.53;;
64894;SDS011;51588;53.702;10.208;2022-07-18T13:42:11;6.00;;;4.10;;
64894;SDS011;51588;53.702;10.208;2022-07-18T13:44:38;5.90;;;4.57;;
64894;SDS011;51588;53.702;10.208;2022-07-18T13:47:05;7.03;;;4.23;;
64894;SDS011;51588;53.702;10.208;2022-07-18T13:49:31;7.33;;;4.80;;
64894;SDS011;51588;53.702;10.208;2022-07-18T13:51:58;6.70;;;4.50;;
64894;SDS011;51588;53.702;10.208;2022-07-18T13:54:24;6.57;;;4.50;;
64894;SDS011;51588;53.702;10.208;2022-07-18T13:56:50;5.50;;;4.40;;
64894;SDS011;51588;53.702;10.208;2022-07-18T13:59:17;6.10;;;4.43;;
64894;SDS011;51588;53.702;10.208;2022-07-18T14:01:44;7.70;;;4.40;;
64894;SDS011;51588;53.702;10.208;2022-07-18T14:04:11;6.23;;;4.43;;
64894;SDS011;51588;53.702;10.208;2022-07-18T14:06:37;7.00;;;4.80;;
64894;SDS011;51588;53.702;10.208;2022-07-18T14:09:04;6.57;;;4.37;;
64894;SDS011;51588;53.702;10.208;2022-07-18T14:11:31;6.57;;;4.30;;
64894;SDS011;51588;53.702;10.208;2022-07-18T14:13:58;5.23;;;4.00;;
64894;SDS011;51588;53.702;10.208;2022-07-18T14:16:24;5.57;;;4.10;;
64894;SDS011;51588;53.702;10.208;2022-07-18T14:18:52;5.10;;;3.80;;
64894;SDS011;51588;53.702;10.208;2022-07-18T14:21:18;7.20;;;4.53;;
64894;SDS011;51588;53.702;10.208;2022-07-18T14:23:45;4.00;;;3.50;;
64894;SDS011;51588;53.702;10.208;2022-07-18T14:26:11;4.60;;;3.90;;
64894;SDS011;51588;53.702;10.208;2022-07-18T14:28:37;6.30;;;4.40;;
64894;SDS011;51588;53.702;10.208;2022-07-18T14:31:04;5.40;;;3.93;;
64894;SDS011;51588;53.702;10.208;2022-07-18T14:33:30;6.40;;;4.07;;
64894;SDS011;51588;53.702;10.208;2022-07-18T14:35:58;5.93;;;3.73;;
64894;SDS011;51588;53.702;10.208;2022-07-18T14:38:25;8.90;;;4.33;;